Kezdőlap
METAR-TAF:

METAR-TAF

Repülőterek :

Keflavík nemzetközi repülőtér

Keflavík, Izland

földrajzi szélesség: 63-58N, földrajzi hosszúság: 022-36W, magasság: 52 m

Jelenlegi meteorológiai megfigyelések

A jelentés 17 perccel ezelõtt készült, 17:00 UTC
Északi szél 22 kt
Hőmérséklet 9°C
Páratartalom 66%
Légköri nyomás 1008 hPa
Látótávolság 10 km, vagy több
Kevés felhő 2500 lábon
Szakadozott felhőzet 2900 lábon

METAR: BIKF 181700Z 01022KT 9999 FEW025 BKN029 09/03 Q1008

Idő: 17:17 (17:17 UTC)

Előrejelzés

A jelentés 3 órával és 31 perccel ezelõtt készült, 13:46 UTC
Az előrejelzés 18-én 15 óra UTC és 19-én 15 óra UTC között érvényes
Észak-északkeleti szél 20 kt széllökések: 30 kt
Látótávolság 10 km, vagy több
Szórványos felhőzet 3000 lábon
19-én 02 óra UTC és 19-én 05 óra UTC között fokozatosan kialakuló
Észak-északkeleti szél 17 kt

TAF: BIKF 181346Z 1815/1915 02020G30KT 9999 SCT030 TX11/1815Z TN05/1903Z BECMG 1902/1905 02017KT

Meteorológiai megfigyelések és előrejelzések több, mint 4000 repülőtéren (METAR és TAF jelentéseket).

A térképen piros és sárga pontok jelzik az elérhető meteorológiai állomásokat.

Mozgassa az egeret a pont fölött, hogy megjelenjen az állomás neve.

Azután kattintson az időjárási megfigyelések és előrejelzések megtekintéséhez.

A térkép megváltoztatása: kattintson a fekete keresztel jelölt zöld gombra ráközelítéshez, a vonallal jelölt zöld gombra távolításhoz, vagy a zöld nyilakra a szomszédos térképek eléréséhez.


METAR-TAF: